Time;durP1;ratioP1;P1;durP2;ratioP2;P2;SDS_P1;SDS_P2;PMS_P1;PMS_P2;Temp;Humidity;BMP_temperature;BMP_pressure;BME280_temperature;BME280_humidity;BME280_pressure;Samples;Min_cycle;Max_cycle;Signal;HPM_P1;HPM_P2
2023/03/12 00:02:07;;;;;;;3.15;1.25;;;1.00;99.90;;;;;;5014109;28;20414;-70
2023/03/12 00:04:34;;;;;;;1.95;1.30;;;1.00;99.90;;;;;;5012677;28;20026;-70
2023/03/12 00:07:01;;;;;;;2.75;1.73;;;1.00;99.90;;;;;;5012979;28;20065;-70
2023/03/12 00:09:27;;;;;;;1.45;1.10;;;1.00;99.90;;;;;;5012838;28;20025;-70
2023/03/12 00:11:52;;;;;;;4.20;1.17;;;1.00;99.90;;;;;;5012465;28;20104;-70
2023/03/12 00:14:18;;;;;;;2.53;1.48;;;0.90;99.90;;;;;;5012074;28;20041;-70
2023/03/12 00:16:43;;;;;;;4.80;1.42;;;0.80;99.90;;;;;;5015228;28;20073;-70
2023/03/12 00:19:12;;;;;;;1.75;1.27;;;0.70;99.90;;;;;;5017060;28;20466;-70
2023/03/12 00:21:38;;;;;;;1.60;1.33;;;0.80;99.90;;;;;;5017226;28;20030;-70
2023/03/12 00:24:04;;;;;;;4.13;1.50;;;0.60;99.90;;;;;;5017116;28;20085;-70
2023/03/12 00:26:30;;;;;;;2.33;1.48;;;0.60;99.90;;;;;;5015758;28;20037;-70
2023/03/12 00:28:56;;;;;;;4.10;1.38;;;0.60;99.90;;;;;;5017608;28;20034;-70
2023/03/12 00:31:31;;;;;;;3.38;1.20;;;0.50;99.90;;;;;;5019766;28;20501;-74
2023/03/12 00:33:58;;;;;;;6.35;1.40;;;0.40;99.90;;;;;;5019559;28;20017;-70
2023/03/12 00:36:26;;;;;;;2.30;1.27;;;0.40;99.90;;;;;;5018999;28;20037;-70
2023/03/12 00:38:53;;;;;;;2.88;1.30;;;0.30;99.90;;;;;;5017363;28;20032;-70
2023/03/12 00:41:19;;;;;;;2.25;0.98;;;0.20;99.90;;;;;;5017932;28;20505;-70
2023/03/12 00:43:46;;;;;;;3.10;1.02;;;0.10;99.90;;;;;;5015878;28;20030;-70
2023/03/12 00:46:12;;;;;;;3.22;1.25;;;0.10;99.90;;;;;;5016982;28;20018;-70
2023/03/12 00:48:38;;;;;;;1.42;1.05;;;0.00;99.90;;;;;;5015760;28;20469;-70
2023/03/12 00:51:04;;;;;;;4.80;1.38;;;-0.10;99.90;;;;;;5016644;28;20098;-70
2023/03/12 00:53:30;;;;;;;2.05;1.13;;;-0.20;99.90;;;;;;5016553;28;20024;-70
2023/03/12 00:55:55;;;;;;;2.72;1.60;;;-0.10;99.90;;;;;;5016913;28;20026;-70
2023/03/12 00:58:21;;;;;;;4.75;2.10;;;-0.20;99.90;;;;;;5015442;28;20037;-70
2023/03/12 01:00:47;;;;;;;8.38;3.08;;;-0.10;99.90;;;;;;5016519;28;20034;-69
2023/03/12 01:03:12;;;;;;;8.68;2.80;;;-0.10;99.90;;;;;;5017025;28;20026;-70
2023/03/12 01:05:39;;;;;;;8.68;3.00;;;-0.10;99.90;;;;;;5015374;28;20045;-70
2023/03/12 01:08:06;;;;;;;3.22;1.90;;;-0.10;99.90;;;;;;5015404;28;20453;-70
2023/03/12 01:10:33;;;;;;;4.72;2.10;;;-0.10;99.90;;;;;;5016803;28;20054;-69
2023/03/12 01:12:59;;;;;;;3.67;1.75;;;-0.10;99.90;;;;;;5016632;28;20061;-69
2023/03/12 01:15:25;;;;;;;5.60;1.90;;;-0.10;99.90;;;;;;5016379;28;20362;-70
2023/03/12 01:17:50;;;;;;;5.00;1.80;;;-0.10;99.90;;;;;;5016265;28;20035;-70
2023/03/12 01:20:16;;;;;;;7.47;1.85;;;-0.10;99.90;;;;;;5015595;28;20030;-70
2023/03/12 01:22:43;;;;;;;5.55;2.33;;;-0.10;99.90;;;;;;5016271;28;20026;-70
2023/03/12 01:25:09;;;;;;;5.18;1.88;;;-0.10;99.90;;;;;;5015093;28;20026;-70
2023/03/12 01:27:35;;;;;;;5.05;2.05;;;-0.10;99.90;;;;;;5016360;28;20030;-70
2023/03/12 01:30:01;;;;;;;3.17;1.52;;;-0.10;99.90;;;;;;5013868;28;20022;-70
2023/03/12 01:32:26;;;;;;;5.60;2.00;;;-0.10;99.90;;;;;;5016299;28;20045;-70
2023/03/12 01:34:52;;;;;;;1.83;1.33;;;-0.10;99.90;;;;;;5015345;28;20125;-70
2023/03/12 01:37:18;;;;;;;3.65;1.70;;;-0.10;99.90;;;;;;5014705;28;20389;-70
2023/03/12 01:39:43;;;;;;;5.90;1.90;;;0.00;99.90;;;;;;5016150;28;20080;-70
2023/03/12 01:42:09;;;;;;;4.13;2.03;;;0.00;99.90;;;;;;5014908;28;20373;-70
2023/03/12 01:45:00;;;;;;;4.35;1.65;;;0.00;99.90;;;;;;5015587;28;20393;-70
2023/03/12 01:47:30;;;;;;;6.00;2.42;;;0.00;99.90;;;;;;5014490;28;20040;-70
2023/03/12 01:49:57;;;;;;;5.93;2.03;;;0.00;99.90;;;;;;5015823;28;20096;-70
2023/03/12 01:52:25;;;;;;;5.15;1.75;;;0.00;99.90;;;;;;5015548;28;20018;-70
2023/03/12 01:54:54;;;;;;;6.18;2.20;;;0.00;99.90;;;;;;5014333;28;20122;-70
2023/03/12 01:57:25;;;;;;;3.35;2.45;;;0.00;99.90;;;;;;5014398;28;20429;-70
2023/03/12 01:59:55;;;;;;;3.60;1.70;;;-0.10;99.90;;;;;;5014246;28;20037;-70
2023/03/12 02:02:25;;;;;;;5.97;1.85;;;-0.10;99.90;;;;;;5015185;28;20046;-70
2023/03/12 02:05:07;;;;;;;4.85;1.90;;;-0.10;99.90;;;;;;5014547;28;20121;-70
2023/03/12 02:07:34;;;;;;;3.97;1.83;;;-0.20;99.90;;;;;;5015250;28;20026;-70
2023/03/12 02:10:00;;;;;;;2.78;1.63;;;-0.30;99.90;;;;;;5015277;28;20037;-70
2023/03/12 02:12:26;;;;;;;2.22;1.35;;;-0.40;99.90;;;;;;5015357;28;20030;-70
2023/03/12 02:14:52;;;;;;;3.25;1.50;;;-0.50;99.90;;;;;;5013848;28;20037;-70
2023/03/12 02:17:18;;;;;;;5.28;1.35;;;-0.50;99.90;;;;;;5015056;28;20492;-70
2023/03/12 02:20:06;;;;;;;3.55;1.27;;;-0.60;99.90;;;;;;5015391;28;20030;-70
2023/03/12 02:22:37;;;;;;;4.53;1.40;;;-0.60;99.90;;;;;;5015174;28;20021;-70
2023/03/12 02:25:21;;;;;;;1.73;1.13;;;-0.60;99.90;;;;;;5013769;28;20492;-70
2023/03/12 02:27:47;;;;;;;4.07;1.67;;;-0.60;99.90;;;;;;5013501;28;20033;-70
2023/03/12 02:30:15;;;;;;;2.03;1.50;;;-0.70;99.90;;;;;;5013601;28;20026;-70
2023/03/12 02:32:42;;;;;;;2.88;1.75;;;-0.70;99.90;;;;;;5013130;28;20383;-70
2023/03/12 02:35:09;;;;;;;2.67;1.38;;;-0.70;99.90;;;;;;5014852;28;20021;-70
2023/03/12 02:37:34;;;;;;;4.47;1.50;;;-0.70;99.90;;;;;;5013109;28;20033;-70
2023/03/12 02:40:20;;;;;;;4.07;1.70;;;-0.70;99.90;;;;;;5012461;28;20118;-70
2023/03/12 02:42:46;;;;;;;3.08;1.60;;;-0.60;99.90;;;;;;5013138;28;20036;-70
2023/03/12 02:45:11;;;;;;;5.18;1.75;;;-0.80;99.90;;;;;;5014651;28;20034;-70
2023/03/12 02:47:37;;;;;;;4.20;1.80;;;-0.80;99.90;;;;;;5014359;28;20033;-70
2023/03/12 02:50:03;;;;;;;4.82;1.80;;;-0.70;99.90;;;;;;5014598;28;20033;-70
2023/03/12 02:52:34;;;;;;;3.88;1.60;;;-0.80;99.90;;;;;;5013141;28;20037;-70
2023/03/12 02:55:00;;;;;;;2.17;1.63;;;-0.70;99.90;;;;;;5014450;28;20045;-70
2023/03/12 02:57:26;;;;;;;2.42;1.60;;;-0.70;99.90;;;;;;5014482;28;20034;-70
2023/03/12 02:59:51;;;;;;;3.67;1.80;;;-0.80;99.90;;;;;;5013143;28;20382;-70
2023/03/12 03:02:17;;;;;;;5.00;1.40;;;-0.40;99.90;;;;;;5014308;28;20030;-70
2023/03/12 03:04:42;;;;;;;4.47;1.70;;;-0.80;99.90;;;;;;5014208;28;20022;-70
2023/03/12 03:07:08;;;;;;;2.95;1.63;;;-0.80;99.90;;;;;;5014420;28;20038;-70
2023/03/12 03:09:34;;;;;;;2.38;1.63;;;-0.80;99.90;;;;;;5014272;28;20109;-70
2023/03/12 03:11:59;;;;;;;5.45;1.70;;;-0.90;99.90;;;;;;5011441;28;20026;-70
2023/03/12 03:14:25;;;;;;;4.10;1.63;;;-0.80;99.90;;;;;;5009945;28;20030;-70
2023/03/12 03:16:51;;;;;;;3.55;1.30;;;-0.90;99.90;;;;;;5013121;28;20042;-70
2023/03/12 03:19:17;;;;;;;2.45;1.80;;;-1.00;99.90;;;;;;5013937;28;20414;-70
2023/03/12 03:21:43;;;;;;;5.63;2.00;;;-0.90;99.90;;;;;;5014015;28;20029;-70
2023/03/12 03:24:08;;;;;;;3.05;1.45;;;-1.00;99.90;;;;;;5014502;28;20416;-70
2023/03/12 03:26:34;;;;;;;4.15;1.42;;;-1.00;99.90;;;;;;5014417;28;20030;-70
2023/03/12 03:29:00;;;;;;;1.67;1.33;;;-1.00;99.90;;;;;;5014037;28;20454;-70
2023/03/12 03:31:26;;;;;;;5.95;1.65;;;-1.00;99.90;;;;;;5012480;28;20053;-70
2023/03/12 03:33:51;;;;;;;4.32;1.45;;;-1.00;99.90;;;;;;5013970;28;20022;-70
2023/03/12 03:36:18;;;;;;;2.40;1.42;;;-1.00;99.90;;;;;;5014199;28;20110;-70
2023/03/12 03:38:48;;;;;;;3.30;2.15;;;-1.00;99.90;;;;;;5012821;28;20429;-70
2023/03/12 03:41:18;;;;;;;2.60;1.50;;;-1.00;99.90;;;;;;5012733;28;20030;-70
2023/03/12 03:43:45;;;;;;;2.80;1.50;;;-0.80;99.90;;;;;;5012804;28;20034;-70
2023/03/12 03:46:12;;;;;;;6.22;2.22;;;-1.10;99.90;;;;;;5014274;28;20041;-70
2023/03/12 03:48:38;;;;;;;3.35;1.65;;;-1.10;99.90;;;;;;5013943;28;20030;-70
2023/03/12 03:51:06;;;;;;;2.63;1.80;;;-1.10;99.90;;;;;;5012591;28;20026;-70
2023/03/12 03:53:33;;;;;;;4.63;1.80;;;-1.10;99.90;;;;;;5018166;28;20022;-71
2023/03/12 03:56:14;;;;;;;4.93;1.60;;;-1.10;99.90;;;;;;5016750;28;20030;-70
2023/03/12 03:58:40;;;;;;;5.47;1.80;;;-1.00;99.90;;;;;;5016914;28;20029;-70
2023/03/12 04:01:06;;;;;;;6.55;1.35;;;-1.10;99.90;;;;;;5016376;28;20034;-70
2023/03/12 04:03:33;;;;;;;3.72;2.00;;;-1.00;99.90;;;;;;5016458;28;20466;-70
2023/03/12 04:06:01;;;;;;;5.88;1.58;;;-1.10;99.90;;;;;;5016298;28;20026;-70
2023/03/12 04:08:27;;;;;;;3.00;1.83;;;-1.00;99.90;;;;;;5016168;28;20425;-70
2023/03/12 04:10:53;;;;;;;2.03;1.55;;;-1.00;99.90;;;;;;5016175;28;20488;-70
2023/03/12 04:13:19;;;;;;;3.58;1.65;;;-1.00;99.90;;;;;;5017775;28;20109;-70
2023/03/12 04:15:53;;;;;;;4.55;2.40;;;-1.00;99.90;;;;;;5016109;28;20084;-70
2023/03/12 04:18:19;;;;;;;3.50;1.55;;;-1.10;99.90;;;;;;5016102;28;20083;-70
2023/03/12 04:20:45;;;;;;;3.85;1.52;;;-1.10;99.90;;;;;;5017580;28;20108;-70
2023/03/12 04:23:10;;;;;;;3.03;1.85;;;-1.20;99.90;;;;;;5016422;28;20037;-69
2023/03/12 04:25:37;;;;;;;6.38;1.90;;;-0.90;99.90;;;;;;5015783;28;20029;-70
2023/03/12 04:28:03;;;;;;;2.13;1.60;;;-1.20;99.90;;;;;;5017028;28;20091;-70
2023/03/12 04:30:29;;;;;;;4.30;1.95;;;-1.20;99.90;;;;;;5016739;28;20029;-70
2023/03/12 04:32:55;;;;;;;2.63;1.63;;;-1.30;99.90;;;;;;5017155;28;20029;-70
2023/03/12 04:35:20;;;;;;;5.22;1.77;;;-1.30;99.90;;;;;;5017304;28;20032;-70
2023/03/12 04:37:46;;;;;;;5.15;2.45;;;-1.30;99.90;;;;;;5019057;28;20492;-70
2023/03/12 04:40:12;;;;;;;7.68;2.28;;;-0.60;99.90;;;;;;5019198;28;20380;-70
2023/03/12 04:42:38;;;;;;;6.50;2.67;;;-1.30;99.90;;;;;;5018653;28;20029;-71
2023/03/12 04:45:05;;;;;;;9.50;3.30;;;-1.00;99.90;;;;;;5016642;28;20121;-70
2023/03/12 04:47:34;;;;;;;8.30;2.58;;;-1.30;99.90;;;;;;5015796;28;20037;-70
2023/03/12 04:49:59;;;;;;;;;;;-1.30;99.90;;;;;;5017366;28;20026;-70
2023/03/12 04:52:25;;;;;;;8.70;3.40;;;-1.40;99.90;;;;;;5015615;28;19980;-70
2023/03/12 04:54:52;;;;;;;8.38;3.60;;;-1.10;99.90;;;;;;5015952;28;20037;-70
2023/03/12 04:57:18;;;;;;;11.02;3.97;;;-0.90;99.90;;;;;;5015499;28;20057;-70
2023/03/12 04:59:43;;;;;;;10.05;4.55;;;-1.40;99.90;;;;;;5015720;28;20137;-69
2023/03/12 05:02:09;;;;;;;15.27;4.13;;;-1.30;99.90;;;;;;5016848;28;20030;-70
2023/03/12 05:04:35;;;;;;;12.50;3.72;;;-1.40;99.90;;;;;;5014040;28;20022;-70
2023/03/12 05:07:00;;;;;;;14.35;4.28;;;-1.40;99.90;;;;;;5016613;28;20048;-70
2023/03/12 05:09:26;;;;;;;12.13;4.20;;;-0.20;99.90;;;;;;5015241;28;20030;-70
2023/03/12 05:11:52;;;;;;;14.15;3.90;;;-1.10;99.90;;;;;;5015238;28;20026;-70
2023/03/12 05:14:17;;;;;;;13.40;4.35;;;-1.60;99.90;;;;;;5014970;28;20025;-70
2023/03/12 05:16:43;;;;;;;14.02;4.38;;;-0.60;99.90;;;;;;5014915;28;20117;-70
2023/03/12 05:19:08;;;;;;;18.02;3.85;;;-1.50;99.90;;;;;;5016312;28;20069;-70
2023/03/12 05:21:34;;;;;;;14.15;4.28;;;-1.50;99.90;;;;;;5014907;28;20022;-70
2023/03/12 05:24:00;;;;;;;10.27;3.88;;;-1.50;99.90;;;;;;5014770;28;20381;-70
2023/03/12 05:26:30;;;;;;;14.25;3.38;;;-1.50;99.90;;;;;;5015920;28;20049;-70
2023/03/12 05:28:56;;;;;;;11.48;4.00;;;-1.50;99.90;;;;;;5014755;28;20037;-70
2023/03/12 05:31:22;;;;;;;12.68;3.83;;;-1.50;99.90;;;;;;5015657;28;20064;-71
2023/03/12 05:33:48;;;;;;;11.45;3.85;;;-1.40;99.90;;;;;;5015886;28;20026;-70
2023/03/12 05:36:15;;;;;;;7.68;3.13;;;-1.40;99.90;;;;;;5014533;28;20473;-70
2023/03/12 05:38:41;;;;;;;8.07;3.65;;;-1.40;99.90;;;;;;5014793;28;20501;-70
2023/03/12 05:41:08;;;;;;;6.32;2.70;;;-1.00;99.90;;;;;;5014798;28;20022;-70
2023/03/12 05:43:34;;;;;;;10.50;3.45;;;-1.40;99.90;;;;;;5014542;28;20022;-69
2023/03/12 05:46:03;;;;;;;8.90;3.65;;;-1.40;99.90;;;;;;5015769;28;20037;-70
2023/03/12 05:48:30;;;;;;;9.95;4.05;;;-1.40;99.90;;;;;;5014326;28;20038;-70
2023/03/12 05:50:56;;;;;;;7.13;4.05;;;-1.30;99.90;;;;;;5016112;28;20103;-71
2023/03/12 05:53:22;;;;;;;9.85;4.10;;;-1.30;99.90;;;;;;5015724;28;20036;-69
2023/03/12 05:55:48;;;;;;;6.40;3.28;;;-1.30;99.90;;;;;;5015263;28;20030;-71
2023/03/12 05:58:14;;;;;;;7.25;3.83;;;-1.20;99.90;;;;;;5014586;28;20026;-71
2023/03/12 06:00:41;;;;;;;5.72;4.05;;;-1.20;99.90;;;;;;5014255;28;20084;-72
2023/03/12 06:03:07;;;;;;;7.13;4.00;;;-0.60;99.90;;;;;;5015753;28;20033;-71
2023/03/12 06:05:34;;;;;;;8.05;3.38;;;-1.10;99.90;;;;;;5014353;28;20025;-70
2023/03/12 06:08:00;;;;;;;5.40;2.95;;;-1.00;99.90;;;;;;5014100;28;20065;-70
2023/03/12 06:10:26;;;;;;;5.60;2.53;;;-1.00;99.90;;;;;;5015385;28;20106;-70
2023/03/12 06:12:52;;;;;;;4.07;2.28;;;-0.90;99.90;;;;;;5014026;28;20060;-70
2023/03/12 06:15:18;;;;;;;5.53;2.38;;;-0.90;99.90;;;;;;5014990;28;20113;-70
2023/03/12 06:17:44;;;;;;;6.50;2.60;;;-0.80;99.90;;;;;;5015054;28;20026;-70
2023/03/12 06:20:10;;;;;;;3.58;2.72;;;-0.70;99.90;;;;;;5013874;28;20022;-70
2023/03/12 06:22:35;;;;;;;6.53;2.53;;;-0.70;99.90;;;;;;5014124;28;20030;-71
2023/03/12 06:25:02;;;;;;;4.50;2.45;;;-0.70;99.90;;;;;;5013568;28;20516;-70
2023/03/12 06:27:27;;;;;;;3.33;2.70;;;-0.50;99.90;;;;;;5015156;28;20531;-71
2023/03/12 06:29:53;;;;;;;3.65;1.95;;;-0.20;99.90;;;;;;5015555;28;20022;-71
2023/03/12 06:32:19;;;;;;;4.82;2.85;;;0.20;99.90;;;;;;5015620;28;20120;-71
2023/03/12 06:34:44;;;;;;;4.57;2.55;;;0.50;99.90;;;;;;5009706;28;20029;-71
2023/03/12 06:37:10;;;;;;;4.15;2.85;;;0.80;99.90;;;;;;5013049;28;20363;-70
2023/03/12 06:39:37;;;;;;;5.55;3.33;;;1.00;99.90;;;;;;5014690;28;20022;-69
2023/03/12 06:42:03;;;;;;;5.03;3.20;;;1.30;99.90;;;;;;5014149;28;20057;-69
2023/03/12 06:44:29;;;;;;;5.57;3.33;;;1.70;99.90;;;;;;5017257;28;20124;-70
2023/03/12 06:46:55;;;;;;;5.85;3.65;;;2.00;99.90;;;;;;5015492;28;20497;-71
2023/03/12 06:49:21;;;;;;;4.70;3.58;;;2.30;99.90;;;;;;5016579;28;20101;-70
2023/03/12 06:51:46;;;;;;;5.60;3.53;;;2.50;99.90;;;;;;5014630;28;20121;-70
2023/03/12 06:54:12;;;;;;;9.02;3.20;;;2.70;99.90;;;;;;5014630;28;20601;-70
2023/03/12 06:56:38;;;;;;;5.60;2.75;;;3.00;99.90;;;;;;5015832;28;20065;-70
2023/03/12 06:59:04;;;;;;;4.20;2.70;;;3.10;99.90;;;;;;5014138;28;20026;-70
2023/03/12 07:01:29;;;;;;;3.38;2.50;;;3.10;99.90;;;;;;5013283;28;20045;-70
2023/03/12 07:03:55;;;;;;;3.17;2.00;;;3.40;99.90;;;;;;5014633;28;20381;-70
2023/03/12 07:06:22;;;;;;;2.55;2.15;;;3.50;99.90;;;;;;5014831;28;20109;-70
2023/03/12 07:08:48;;;;;;;4.28;2.03;;;3.70;99.90;;;;;;5014929;28;20038;-73
2023/03/12 07:11:14;;;;;;;5.15;2.20;;;3.80;99.80;;;;;;5017100;28;20037;-73
2023/03/12 07:13:41;;;;;;;4.35;2.30;;;4.10;98.80;;;;;;5015633;28;20022;-73
2023/03/12 07:16:07;;;;;;;4.18;2.00;;;4.40;98.10;;;;;;5016567;28;20037;-73
2023/03/12 07:18:33;;;;;;;3.88;1.90;;;4.70;97.00;;;;;;5015812;28;20029;-71
2023/03/12 07:20:59;;;;;;;4.40;1.80;;;5.10;95.50;;;;;;5016023;28;20036;-72
2023/03/12 07:23:25;;;;;;;3.40;1.80;;;5.30;92.30;;;;;;5015863;28;20026;-73
2023/03/12 07:25:51;;;;;;;3.83;2.50;;;5.40;90.60;;;;;;5017402;28;20454;-73
2023/03/12 07:28:18;;;;;;;2.05;1.50;;;5.50;89.40;;;;;;5018910;28;20034;-73
2023/03/12 07:30:49;;;;;;;2.60;1.67;;;5.50;86.20;;;;;;5019771;28;20049;-74
2023/03/12 07:33:17;;;;;;;7.85;1.67;;;5.70;86.20;;;;;;5020152;28;20101;-72
2023/03/12 07:35:44;;;;;;;4.32;2.10;;;5.90;84.50;;;;;;5019099;28;20053;-70
2023/03/12 07:38:10;;;;;;;2.50;1.48;;;6.30;80.90;;;;;;5018540;28;20478;-69
2023/03/12 07:40:35;;;;;;;2.70;1.90;;;6.70;79.60;;;;;;5018288;28;20050;-69
2023/03/12 07:43:03;;;;;;;2.70;1.70;;;7.20;77.10;;;;;;5018384;28;20040;-70
2023/03/12 07:45:28;;;;;;;1.77;1.45;;;7.30;73.80;;;;;;5017318;28;20042;-70
2023/03/12 07:47:54;;;;;;;2.65;1.90;;;7.50;71.30;;;;;;5019109;28;20470;-69
2023/03/12 07:50:20;;;;;;;4.93;2.10;;;7.70;70.70;;;;;;5017974;28;20060;-68
2023/03/12 07:52:46;;;;;;;3.83;1.73;;;7.70;68.10;;;;;;5016498;28;20383;-69
2023/03/12 07:55:12;;;;;;;3.88;2.35;;;7.80;68.10;;;;;;5014081;28;20029;-70
2023/03/12 07:57:38;;;;;;;5.03;2.22;;;8.00;66.10;;;;;;5010704;28;20076;-70
2023/03/12 08:00:06;;;;;;;4.00;2.15;;;8.10;66.70;;;;;;5019257;28;20050;-70
2023/03/12 08:02:33;;;;;;;4.00;2.15;;;8.50;64.50;;;;;;5001411;28;20030;-70
2023/03/12 08:04:59;;;;;;;3.33;1.50;;;8.60;63.70;;;;;;5018424;28;20113;-70
2023/03/12 08:07:30;;;;;;;3.67;1.85;;;8.60;62.80;;;;;;5016391;28;20173;-69
2023/03/12 08:09:59;;;;;;;3.85;1.60;;;8.80;61.90;;;;;;5016028;28;20029;-69
2023/03/12 08:12:25;;;;;;;2.67;1.65;;;9.00;60.90;;;;;;5017577;28;20026;-68
2023/03/12 08:14:51;;;;;;;3.92;2.22;;;9.30;58.50;;;;;;5015936;28;20038;-69
2023/03/12 08:17:17;;;;;;;1.15;0.90;;;9.20;58.00;;;;;;5015945;28;20033;-69
2023/03/12 08:19:42;;;;;;;2.22;1.02;;;9.10;56.20;;;;;;5017427;28;20030;-69
2023/03/12 08:22:08;;;;;;;1.77;1.10;;;9.20;56.60;;;;;;5017358;28;20030;-68
2023/03/12 08:24:34;;;;;;;5.65;1.10;;;9.40;54.70;;;;;;5016989;28;20025;-69
2023/03/12 08:27:00;;;;;;;0.93;0.80;;;9.00;55.20;;;;;;5016994;28;20120;-68
2023/03/12 08:29:26;;;;;;;3.75;1.38;;;9.10;55.10;;;;;;5015696;28;20401;-69
2023/03/12 08:31:52;;;;;;;5.32;1.20;;;9.00;55.10;;;;;;5016755;28;20054;-69
2023/03/12 08:34:17;;;;;;;3.25;1.08;;;9.10;55.30;;;;;;5016763;28;20025;-69
2023/03/12 08:36:43;;;;;;;3.80;1.65;;;9.40;53.40;;;;;;5016013;28;20038;-69
2023/03/12 08:39:09;;;;;;;4.22;1.23;;;9.40;53.00;;;;;;5015810;28;20029;-69
2023/03/12 08:41:34;;;;;;;1.52;1.00;;;10.00;51.90;;;;;;5017518;28;20030;-69
2023/03/12 08:44:00;;;;;;;3.30;0.98;;;10.80;49.90;;;;;;5017076;28;20026;-69
2023/03/12 08:46:26;;;;;;;3.70;1.08;;;11.10;48.60;;;;;;5015509;28;20026;-68
2023/03/12 08:48:51;;;;;;;2.53;1.27;;;10.80;48.00;;;;;;5015885;28;20046;-70
2023/03/12 08:51:17;;;;;;;1.45;1.00;;;10.40;48.10;;;;;;5017198;28;20026;-69
2023/03/12 08:53:43;;;;;;;2.28;0.68;;;10.60;48.70;;;;;;5018752;28;20026;-70
2023/03/12 08:56:09;;;;;;;1.52;0.70;;;10.80;47.20;;;;;;5017540;28;20351;-69
2023/03/12 08:58:35;;;;;;;2.60;0.70;;;11.30;45.20;;;;;;5015825;28;20029;-69
2023/03/12 09:01:01;;;;;;;2.67;1.10;;;11.60;44.30;;;;;;5015643;28;20064;-69
2023/03/12 09:03:26;;;;;;;1.63;0.70;;;11.50;44.50;;;;;;5016842;28;20025;-70
2023/03/12 09:06:09;;;;;;;1.27;0.73;;;11.30;43.00;;;;;;5016415;28;20037;-68
2023/03/12 09:08:35;;;;;;;1.30;0.60;;;11.00;43.40;;;;;;5014750;28;20044;-68
2023/03/12 09:11:01;;;;;;;2.13;1.13;;;10.90;43.50;;;;;;5015616;28;20025;-68
2023/03/12 09:13:27;;;;;;;3.13;1.20;;;10.20;44.90;;;;;;5016940;28;20114;-68
2023/03/12 09:15:58;;;;;;;5.13;2.10;;;10.10;45.20;;;;;;5017146;28;20457;-69
2023/03/12 09:18:24;;;;;;;4.47;2.47;;;10.10;46.00;;;;;;5016119;28;20037;-68
2023/03/12 09:20:50;;;;;;;2.88;1.70;;;10.70;45.80;;;;;;5015026;28;20381;-68
2023/03/12 09:23:15;;;;;;;2.40;1.20;;;11.50;44.00;;;;;;5016130;28;20553;-69
2023/03/12 09:25:45;;;;;;;2.13;0.77;;;11.70;42.60;;;;;;5014345;28;20390;-68
2023/03/12 09:28:11;;;;;;;6.38;1.20;;;11.70;42.10;;;;;;5015820;28;20370;-69
2023/03/12 09:30:37;;;;;;;5.07;1.95;;;11.60;42.00;;;;;;5015908;28;20030;-69
2023/03/12 09:33:02;;;;;;;4.15;1.58;;;11.30;42.00;;;;;;5015907;28;20473;-68
2023/03/12 09:35:30;;;;;;;1.65;0.82;;;11.20;42.70;;;;;;5016011;28;20466;-69
2023/03/12 09:37:56;;;;;;;1.95;0.98;;;11.40;41.50;;;;;;5015762;28;20038;-68
2023/03/12 09:40:24;;;;;;;2.42;0.95;;;11.70;41.70;;;;;;5015881;28;20030;-69
2023/03/12 09:42:56;;;;;;;1.35;1.08;;;12.40;41.10;;;;;;5015569;28;20116;-69
2023/03/12 09:45:25;;;;;;;2.40;0.93;;;12.90;40.00;;;;;;5014228;28;20104;-68
2023/03/12 09:47:51;;;;;;;;;;;13.20;39.60;;;;;;5015823;28;20122;-68
2023/03/12 09:50:27;;;;;;;1.35;0.90;;;13.40;39.10;;;;;;5013683;28;19945;-68
2023/03/12 09:53:15;;;;;;;4.95;1.02;;;13.90;38.60;;;;;;5015116;28;20026;-69
2023/03/12 09:55:45;;;;;;;3.45;1.05;;;14.60;36.80;;;;;;5015337;28;20028;-69
2023/03/12 09:58:21;;;;;;;2.50;1.42;;;14.50;37.00;;;;;;5015334;28;20112;-69
2023/03/12 10:00:47;;;;;;;4.05;1.45;;;14.40;37.20;;;;;;5015285;28;20092;-68
2023/03/12 10:03:15;;;;;;;3.58;1.20;;;13.90;37.70;;;;;;5015177;28;20474;-68
2023/03/12 10:06:00;;;;;;;1.75;1.08;;;13.40;37.90;;;;;;5015312;28;20100;-68
2023/03/12 10:08:50;;;;;;;4.18;1.55;;;13.10;38.90;;;;;;5013887;28;20041;-68
2023/03/12 10:11:24;;;;;;;5.38;1.25;;;12.60;40.10;;;;;;5013773;28;20108;-69
2023/03/12 10:14:15;;;;;;;3.13;1.30;;;12.60;39.70;;;;;;5015352;28;20089;-68
2023/03/12 10:16:50;;;;;;;3.17;1.15;;;12.90;39.70;;;;;;5013756;28;20022;-68
2023/03/12 10:19:50;;;;;;;3.30;1.48;;;13.70;39.10;;;;;;5013610;28;20125;-69
2023/03/12 10:22:24;;;;;;;3.15;1.60;;;14.00;38.30;;;;;;5013627;28;20030;-69
2023/03/12 10:25:05;;;;;;;2.15;1.48;;;13.50;38.40;;;;;;5015079;28;20061;-69
2023/03/12 10:27:35;;;;;;;3.05;1.20;;;13.50;39.20;;;;;;5014778;28;20037;-69
2023/03/12 10:30:11;;;;;;;3.65;1.42;;;13.70;38.30;;;;;;5013497;28;20029;-69
2023/03/12 10:32:45;;;;;;;3.38;1.30;;;13.40;38.80;;;;;;5015585;28;20056;-69
2023/03/12 10:35:18;;;;;;;2.10;1.20;;;13.70;39.30;;;;;;5013418;28;20057;-69
2023/03/12 10:37:52;;;;;;;4.07;1.70;;;13.90;38.40;;;;;;5013760;28;20029;-69
2023/03/12 10:40:25;;;;;;;4.28;1.50;;;14.00;37.80;;;;;;5013775;28;20032;-70
2023/03/12 10:42:51;;;;;;;2.63;1.42;;;13.50;38.20;;;;;;5014507;28;20034;-69
2023/03/12 10:45:31;;;;;;;4.68;1.83;;;13.10;38.80;;;;;;5013242;28;20101;-69
2023/03/12 10:48:01;;;;;;;3.85;1.90;;;13.10;39.20;;;;;;5013984;28;20037;-69
2023/03/12 10:50:31;;;;;;;2.80;1.70;;;12.70;39.50;;;;;;5015573;28;20037;-69
2023/03/12 10:53:19;;;;;;;4.20;1.33;;;12.80;40.20;;;;;;5014434;28;20084;-69
2023/03/12 10:56:08;;;;;;;2.83;1.70;;;14.00;39.00;;;;;;5014730;28;20032;-68
2023/03/12 10:58:38;;;;;;;2.53;1.48;;;14.20;37.80;;;;;;5012794;28;20030;-69
2023/03/12 11:01:14;;;;;;;4.43;1.75;;;14.90;37.30;;;;;;5011920;28;20026;-68
2023/03/12 11:03:41;;;;;;;3.00;1.60;;;15.70;36.60;;;;;;5014291;28;20061;-69
2023/03/12 11:06:14;;;;;;;5.30;1.88;;;16.00;35.50;;;;;;5013918;28;20053;-68
2023/03/12 11:08:41;;;;;;;5.82;2.60;;;15.20;36.10;;;;;;5014173;28;20034;-68
2023/03/12 11:11:08;;;;;;;4.97;1.92;;;14.90;37.10;;;;;;5014092;28;20058;-68
2023/03/12 11:13:39;;;;;;;3.47;1.92;;;15.70;36.20;;;;;;5014082;28;20049;-69
2023/03/12 11:16:17;;;;;;;2.78;1.90;;;15.10;34.90;;;;;;5012790;28;20528;-69
2023/03/12 11:19:04;;;;;;;3.05;1.67;;;17.00;35.00;;;;;;5012750;28;20065;-69
2023/03/12 11:21:35;;;;;;;3.00;1.77;;;18.40;33.20;;;;;;5014437;28;20061;-69
2023/03/12 11:24:12;;;;;;;4.95;1.77;;;19.30;31.60;;;;;;5013842;28;20490;-69
2023/03/12 11:26:50;;;;;;;2.10;1.85;;;18.20;31.60;;;;;;5012604;28;20136;-69
2023/03/12 11:29:30;;;;;;;3.85;2.50;;;17.60;32.70;;;;;;5013081;28;20073;-69
2023/03/12 11:31:55;;;;;;;2.75;1.50;;;16.80;33.30;;;;;;5012430;28;20042;-69
2023/03/12 11:34:25;;;;;;;3.20;2.00;;;17.00;33.50;;;;;;5012580;28;20057;-69
2023/03/12 11:37:13;;;;;;;2.75;1.90;;;17.70;33.20;;;;;;5013190;28;20120;-70
2023/03/12 11:39:45;;;;;;;3.95;1.98;;;17.80;32.00;;;;;;5013795;28;20026;-69
2023/03/12 11:42:49;;;;;;;3.28;1.88;;;16.80;33.20;;;;;;5013866;28;20032;-69
2023/03/12 11:45:40;;;;;;;2.67;1.92;;;16.70;34.00;;;;;;5013688;28;20101;-69
2023/03/12 11:48:26;;;;;;;3.10;1.90;;;17.00;33.30;;;;;;5013414;28;20044;-69
2023/03/12 11:51:08;;;;;;;3.75;2.20;;;16.10;34.50;;;;;;5013714;28;20559;-69
2023/03/12 11:54:00;;;;;;;3.40;2.40;;;14.70;35.80;;;;;;5012442;28;20419;-69
2023/03/12 11:56:33;;;;;;;3.17;2.88;;;14.10;36.60;;;;;;5013747;28;20030;-68
2023/03/12 11:59:17;;;;;;;4.07;2.40;;;13.60;37.50;;;;;;5013447;28;20059;-69
2023/03/12 12:02:15;;;;;;;3.28;2.40;;;12.60;39.20;;;;;;5013552;28;20026;-69
2023/03/12 12:05:08;;;;;;;3.38;2.40;;;12.20;40.90;;;;;;5013835;28;20026;-69
2023/03/12 12:08:06;;;;;;;3.92;2.67;;;12.30;40.60;;;;;;5012525;28;20427;-68
2023/03/12 12:10:54;;;;;;;3.00;2.55;;;12.50;40.80;;;;;;5012409;28;20033;-68
2023/03/12 12:13:32;;;;;;;5.10;2.90;;;12.70;41.60;;;;;;5007584;28;20034;-69
2023/03/12 12:16:22;;;;;;;5.32;2.70;;;12.20;41.70;;;;;;5017790;28;20033;-69
2023/03/12 12:18:57;;;;;;;4.63;2.63;;;12.30;41.50;;;;;;5016442;28;20462;-69
2023/03/12 12:21:41;;;;;;;6.38;2.92;;;12.10;41.90;;;;;;5016099;28;20040;-69
2023/03/12 12:24:46;;;;;;;5.15;3.22;;;12.30;42.10;;;;;;5017437;28;20037;-69
2023/03/12 12:27:19;;;;;;;4.90;3.10;;;12.30;42.10;;;;;;4988138;28;20054;-69
2023/03/12 12:30:05;;;;;;;4.30;3.30;;;11.80;42.30;;;;;;5017600;28;20057;-69
2023/03/12 12:32:46;;;;;;;5.43;3.60;;;11.50;43.80;;;;;;5019390;28;20125;-69
2023/03/12 12:35:35;;;;;;;3.97;2.83;;;11.30;44.60;;;;;;5019566;28;20080;-69
2023/03/12 12:38:29;;;;;;;9.15;3.17;;;11.20;45.20;;;;;;5019670;28;20363;-69
2023/03/12 12:41:15;;;;;;;3.25;2.50;;;11.90;43.80;;;;;;5021475;28;20057;-69
2023/03/12 12:43:43;;;;;;;3.88;2.50;;;11.90;43.30;;;;;;5019765;28;20030;-69
2023/03/12 12:46:20;;;;;;;4.80;2.97;;;11.70;42.30;;;;;;5019977;28;20030;-69
2023/03/12 12:48:54;;;;;;;4.15;2.70;;;11.30;43.00;;;;;;5017560;28;20034;-69
2023/03/12 12:51:24;;;;;;;4.43;2.13;;;11.30;42.70;;;;;;5017028;28;20032;-69
2023/03/12 12:54:11;;;;;;;5.13;3.30;;;11.40;42.20;;;;;;5018335;28;20049;-69
2023/03/12 12:57:03;;;;;;;3.80;2.53;;;11.20;42.50;;;;;;5016723;28;20036;-68
2023/03/12 12:59:49;;;;;;;2.92;2.63;;;11.20;43.50;;;;;;5018208;28;20038;-69
2023/03/12 13:02:19;;;;;;;2.58;2.35;;;11.30;43.50;;;;;;5016413;28;20025;-69
2023/03/12 13:04:47;;;;;;;5.95;3.10;;;11.10;43.40;;;;;;5016451;28;20033;-68